Decoded Metar for PATL (TATALINA in AK, USA) (IATA:TLJ) | Meteo·Mobile Aviation Weather
aviador You're here:

PATL Decoded Metar

TATALINA in AK, USA
Report Time2019-01-16 05:55:00
UTC Time2019-01-16 06:48:31
Flight Rules vfr VFR
WindCalm
Visibility9999 m
Phenomena:N/A
Clouds:N/A
Expected CloudBase > 400 ft AGL from Temp-Dew spread
CeilingNone
Temp-15°C (ISA -28)
Dew Point-16°C (92% RH)
AAT-18.4°C
QNH1009 hPa
Density Alt-2,415 ft
Elevation965 ft
Report Wrong Elevation
Raw Report
PATL 160555Z AUTO 00000KT 10SM CLR M15/M16 A2979=

Extra information for PATL:More info

Metar Taf Metar & Taf Last 4 Metars F.Rules Stats Wind Profile Meteogram Temp Stats Airport Information Weather charts Add Link Nearby VenuesMetar ALERT Operation Metar Decoded Social comments

AIRNAV info for PATL